sensor_id;sensor_type;location;lat;lon;timestamp;pressure;altitude;pressure_sealevel;temperature;humidity
72689;BME280;61053;52.166;4.506;2023-12-07T00:01:35;101859.13;;;2.12;100.00
72689;BME280;61053;52.166;4.506;2023-12-07T00:04:02;101858.41;;;2.04;100.00
72689;BME280;61053;52.166;4.506;2023-12-07T00:06:28;101854.03;;;2.03;100.00
72689;BME280;61053;52.166;4.506;2023-12-07T00:08:53;101857.53;;;2.03;100.00
72689;BME280;61053;52.166;4.506;2023-12-07T00:11:19;101855.88;;;1.98;100.00
72689;BME280;61053;52.166;4.506;2023-12-07T00:13:44;101856.66;;;2.03;100.00
72689;BME280;61053;52.166;4.506;2023-12-07T00:16:09;101838.13;;;2.07;100.00
72689;BME280;61053;52.166;4.506;2023-12-07T00:18:35;101848.81;;;2.00;100.00
72689;BME280;61053;52.166;4.506;2023-12-07T00:21:01;101848.88;;;1.97;100.00
72689;BME280;61053;52.166;4.506;2023-12-07T00:23:27;101845.44;;;1.92;100.00
72689;BME280;61053;52.166;4.506;2023-12-07T00:25:52;101843.78;;;1.87;100.00
72689;BME280;61053;52.166;4.506;2023-12-07T00:28:18;101841.94;;;1.91;100.00
72689;BME280;61053;52.166;4.506;2023-12-07T00:30:43;101842.81;;;1.92;100.00
72689;BME280;61053;52.166;4.506;2023-12-07T00:33:09;101834.91;;;1.93;100.00
72689;BME280;61053;52.166;4.506;2023-12-07T00:35:35;101831.47;;;1.88;100.00
72689;BME280;61053;52.166;4.506;2023-12-07T00:38:01;101839.41;;;1.85;100.00
72689;BME280;61053;52.166;4.506;2023-12-07T00:40:27;101829.03;;;1.77;100.00
72689;BME280;61053;52.166;4.506;2023-12-07T00:42:52;101836.13;;;1.74;100.00
72689;BME280;61053;52.166;4.506;2023-12-07T00:45:18;101837.09;;;1.68;100.00
72689;BME280;61053;52.166;4.506;2023-12-07T00:47:44;101839.66;;;1.73;100.00
72689;BME280;61053;52.166;4.506;2023-12-07T00:50:14;101836.22;;;1.67;100.00
72689;BME280;61053;52.166;4.506;2023-12-07T00:52:40;101848.56;;;1.65;100.00
72689;BME280;61053;52.166;4.506;2023-12-07T00:55:06;101843.28;;;1.67;100.00
72689;BME280;61053;52.166;4.506;2023-12-07T00:57:32;101838.84;;;1.69;100.00
72689;BME280;61053;52.166;4.506;2023-12-07T00:59:57;101833.59;;;1.67;100.00
72689;BME280;61053;52.166;4.506;2023-12-07T01:02:23;101840.63;;;1.67;100.00
72689;BME280;61053;52.166;4.506;2023-12-07T01:04:48;101837.16;;;1.65;100.00
72689;BME280;61053;52.166;4.506;2023-12-07T01:07:14;101838.00;;;1.67;100.00
72689;BME280;61053;52.166;4.506;2023-12-07T01:09:40;101839.78;;;1.66;100.00
72689;BME280;61053;52.166;4.506;2023-12-07T01:12:05;101845.22;;;1.54;100.00
72689;BME280;61053;52.166;4.506;2023-12-07T01:14:31;101837.13;;;1.66;100.00
72689;BME280;61053;52.166;4.506;2023-12-07T01:16:57;101838.09;;;1.62;100.00
72689;BME280;61053;52.166;4.506;2023-12-07T01:19:22;101842.41;;;1.65;100.00
72689;BME280;61053;52.166;4.506;2023-12-07T01:21:48;101843.56;;;1.50;100.00
72689;BME280;61053;52.166;4.506;2023-12-07T01:24:13;101845.50;;;1.37;100.00
72689;BME280;61053;52.166;4.506;2023-12-07T01:26:39;101843.63;;;1.45;100.00
72689;BME280;61053;52.166;4.506;2023-12-07T01:29:05;101848.91;;;1.45;100.00
72689;BME280;61053;52.166;4.506;2023-12-07T01:31:30;101848.06;;;1.42;100.00
72689;BME280;61053;52.166;4.506;2023-12-07T01:33:56;101843.56;;;1.48;100.00
72689;BME280;61053;52.166;4.506;2023-12-07T01:36:22;101844.50;;;1.44;100.00
72689;BME280;61053;52.166;4.506;2023-12-07T01:38:47;101842.63;;;1.53;100.00
72689;BME280;61053;52.166;4.506;2023-12-07T01:41:13;101843.41;;;1.59;100.00
72689;BME280;61053;52.166;4.506;2023-12-07T01:43:45;101840.94;;;1.50;100.00
72689;BME280;61053;52.166;4.506;2023-12-07T01:46:11;101835.75;;;1.45;100.00
72689;BME280;61053;52.166;4.506;2023-12-07T01:48:37;101833.03;;;1.48;100.00
72689;BME280;61053;52.166;4.506;2023-12-07T01:51:03;101836.41;;;1.57;100.00
72689;BME280;61053;52.166;4.506;2023-12-07T01:53:29;101835.44;;;1.64;100.00
72689;BME280;61053;52.166;4.506;2023-12-07T01:55:55;101839.94;;;1.56;100.00
72689;BME280;61053;52.166;4.506;2023-12-07T01:58:22;101836.41;;;1.57;100.00
72689;BME280;61053;52.166;4.506;2023-12-07T02:00:48;101831.25;;;1.51;100.00
72689;BME280;61053;52.166;4.506;2023-12-07T02:03:15;101841.78;;;1.51;100.00
72689;BME280;61053;52.166;4.506;2023-12-07T02:05:43;101839.22;;;1.47;100.00
72689;BME280;61053;52.166;4.506;2023-12-07T02:08:12;101845.22;;;1.56;100.00
72689;BME280;61053;52.166;4.506;2023-12-07T02:10:37;101837.31;;;1.56;100.00
72689;BME280;61053;52.166;4.506;2023-12-07T02:13:03;101843.44;;;1.56;100.00
72689;BME280;61053;52.166;4.506;2023-12-07T02:15:30;101844.38;;;1.54;100.00
72689;BME280;61053;52.166;4.506;2023-12-07T02:20:53;101844.31;;;1.57;100.00
72689;BME280;61053;52.166;4.506;2023-12-07T02:23:23;101834.75;;;1.51;100.00
72689;BME280;61053;52.166;4.506;2023-12-07T02:25:52;101833.84;;;1.54;100.00
72689;BME280;61053;52.166;4.506;2023-12-07T02:28:19;101839.28;;;1.43;100.00
72689;BME280;61053;52.166;4.506;2023-12-07T02:30:45;101841.84;;;1.47;100.00
72689;BME280;61053;52.166;4.506;2023-12-07T02:33:10;101844.38;;;1.54;100.00
72689;BME280;61053;52.166;4.506;2023-12-07T02:35:38;101839.16;;;1.51;100.00
72689;BME280;61053;52.166;4.506;2023-12-07T02:38:06;101839.25;;;1.46;100.00
72689;BME280;61053;52.166;4.506;2023-12-07T02:40:34;101844.50;;;1.46;100.00
72689;BME280;61053;52.166;4.506;2023-12-07T02:43:01;101843.81;;;1.35;100.00
72689;BME280;61053;52.166;4.506;2023-12-07T02:45:27;101834.13;;;1.37;100.00
72689;BME280;61053;52.166;4.506;2023-12-07T02:47:53;101840.22;;;1.39;100.00
72689;BME280;61053;52.166;4.506;2023-12-07T02:50:18;101836.69;;;1.40;100.00
72689;BME280;61053;52.166;4.506;2023-12-07T02:52:44;101841.25;;;1.30;100.00
72689;BME280;61053;52.166;4.506;2023-12-07T02:55:10;101842.19;;;1.26;100.00
72689;BME280;61053;52.166;4.506;2023-12-07T02:57:35;101842.03;;;1.35;100.00
72689;BME280;61053;52.166;4.506;2023-12-07T03:00:03;101848.09;;;1.40;100.00
72689;BME280;61053;52.166;4.506;2023-12-07T03:02:36;101847.28;;;1.38;100.00
72689;BME280;61053;52.166;4.506;2023-12-07T03:05:04;101845.50;;;1.37;100.00
72689;BME280;61053;52.166;4.506;2023-12-07T03:07:30;101856.97;;;1.33;100.00
72689;BME280;61053;52.166;4.506;2023-12-07T03:09:56;101851.84;;;1.25;100.00
72689;BME280;61053;52.166;4.506;2023-12-07T03:12:22;101861.50;;;1.23;100.00
72689;BME280;61053;52.166;4.506;2023-12-07T03:14:48;101850.19;;;1.18;100.00
72689;BME280;61053;52.166;4.506;2023-12-07T03:17:20;101848.53;;;1.13;100.00
72689;BME280;61053;52.166;4.506;2023-12-07T03:19:45;101847.44;;;1.26;100.00
72689;BME280;61053;52.166;4.506;2023-12-07T03:22:11;101848.28;;;1.30;100.00
72689;BME280;61053;52.166;4.506;2023-12-07T03:24:43;101845.72;;;1.25;100.00
72689;BME280;61053;52.166;4.506;2023-12-07T03:27:11;101841.25;;;1.29;100.00
72689;BME280;61053;52.166;4.506;2023-12-07T03:29:36;101842.94;;;1.33;100.00
72689;BME280;61053;52.166;4.506;2023-12-07T03:32:02;101840.13;;;1.45;100.00
72689;BME280;61053;52.166;4.506;2023-12-07T03:34:28;101837.56;;;1.40;100.00
72689;BME280;61053;52.166;4.506;2023-12-07T03:36:53;101835.78;;;1.42;100.00
72689;BME280;61053;52.166;4.506;2023-12-07T03:39:19;101839.19;;;1.49;100.00
72689;BME280;61053;52.166;4.506;2023-12-07T03:41:46;101835.78;;;1.42;100.00
72689;BME280;61053;52.166;4.506;2023-12-07T03:44:12;101837.56;;;1.40;100.00
72689;BME280;61053;52.166;4.506;2023-12-07T03:46:37;101838.47;;;1.39;100.00
72689;BME280;61053;52.166;4.506;2023-12-07T03:49:03;101826.13;;;1.43;100.00
72689;BME280;61053;52.166;4.506;2023-12-07T03:51:28;101832.34;;;1.39;100.00
72689;BME280;61053;52.166;4.506;2023-12-07T03:53:55;101838.53;;;1.35;100.00
72689;BME280;61053;52.166;4.506;2023-12-07T03:56:28;101838.38;;;1.44;100.00
72689;BME280;61053;52.166;4.506;2023-12-07T03:58:55;101831.56;;;1.34;100.00
72689;BME280;61053;52.166;4.506;2023-12-07T04:01:24;101825.47;;;1.29;100.00
72689;BME280;61053;52.166;4.506;2023-12-07T04:03:54;101832.63;;;1.20;100.00
72689;BME280;61053;52.166;4.506;2023-12-07T04:06:22;101833.44;;;1.24;100.00
72689;BME280;61053;52.166;4.506;2023-12-07T04:08:48;101835.34;;;1.14;100.00
72689;BME280;61053;52.166;4.506;2023-12-07T04:11:14;101842.44;;;1.08;100.00
72689;BME280;61053;52.166;4.506;2023-12-07T04:13:40;101844.94;;;1.18;100.00
72689;BME280;61053;52.166;4.506;2023-12-07T04:16:07;101838.88;;;1.13;100.00
72689;BME280;61053;52.166;4.506;2023-12-07T04:18:32;101834.47;;;1.14;100.00
72689;BME280;61053;52.166;4.506;2023-12-07T04:20:58;101833.69;;;1.10;100.00
72689;BME280;61053;52.166;4.506;2023-12-07T04:23:23;101829.34;;;1.06;100.00
72689;BME280;61053;52.166;4.506;2023-12-07T04:25:49;101833.69;;;1.07;100.00
72689;BME280;61053;52.166;4.506;2023-12-07T04:28:14;101833.75;;;1.04;100.00
72689;BME280;61053;52.166;4.506;2023-12-07T04:30:40;101827.56;;;1.07;100.00
72689;BME280;61053;52.166;4.506;2023-12-07T04:33:05;101823.22;;;1.05;100.00
72689;BME280;61053;52.166;4.506;2023-12-07T04:35:31;101825.00;;;1.03;100.00
72689;BME280;61053;52.166;4.506;2023-12-07T04:37:57;101818.22;;;0.87;100.00
72689;BME280;61053;52.166;4.506;2023-12-07T04:40:24;101821.66;;;0.91;100.00
72689;BME280;61053;52.166;4.506;2023-12-07T04:42:50;101818.06;;;0.98;100.00
72689;BME280;61053;52.166;4.506;2023-12-07T04:45:16;101818.25;;;0.84;100.00
72689;BME280;61053;52.166;4.506;2023-12-07T04:47:42;101813.00;;;0.86;100.00
72689;BME280;61053;52.166;4.506;2023-12-07T04:50:08;101822.72;;;0.80;100.00
72689;BME280;61053;52.166;4.506;2023-12-07T04:52:35;101822.69;;;0.82;100.00
72689;BME280;61053;52.166;4.506;2023-12-07T04:55:00;101829.66;;;0.84;100.00
72689;BME280;61053;52.166;4.506;2023-12-07T04:57:26;101824.31;;;0.91;100.00
72689;BME280;61053;52.166;4.506;2023-12-07T04:59:51;101829.84;;;0.71;100.00
72689;BME280;61053;52.166;4.506;2023-12-07T05:02:17;101836.91;;;0.69;100.00
72689;BME280;61053;52.166;4.506;2023-12-07T05:04:43;101827.16;;;0.75;100.00
72689;BME280;61053;52.166;4.506;2023-12-07T05:07:10;101826.28;;;0.75;100.00
72689;BME280;61053;52.166;4.506;2023-12-07T05:09:36;101829.88;;;0.69;100.00
72689;BME280;61053;52.166;4.506;2023-12-07T05:12:03;101824.56;;;0.72;100.00
72689;BME280;61053;52.166;4.506;2023-12-07T05:14:31;101821.94;;;0.72;100.00
72689;BME280;61053;52.166;4.506;2023-12-07T05:16:57;101816.59;;;0.80;100.00
72689;BME280;61053;52.166;4.506;2023-12-07T05:19:25;101820.94;;;0.79;100.00
72689;BME280;61053;52.166;4.506;2023-12-07T05:21:51;101818.31;;;0.81;100.00
72689;BME280;61053;52.166;4.506;2023-12-07T05:24:17;101816.47;;;0.86;100.00
72689;BME280;61053;52.166;4.506;2023-12-07T05:26:44;101818.19;;;0.90;100.00
72689;BME280;61053;52.166;4.506;2023-12-07T05:29:14;101815.50;;;0.93;100.00
72689;BME280;61053;52.166;4.506;2023-12-07T05:31:40;101820.09;;;0.79;100.00
72689;BME280;61053;52.166;4.506;2023-12-07T05:34:09;101811.22;;;0.88;100.00
72689;BME280;61053;52.166;4.506;2023-12-07T05:36:35;101809.31;;;0.96;100.00
72689;BME280;61053;52.166;4.506;2023-12-07T05:39:01;101811.88;;;1.00;100.00
72689;BME280;61053;52.166;4.506;2023-12-07T05:41:26;101817.06;;;1.07;100.00
72689;BME280;61053;52.166;4.506;2023-12-07T05:43:52;101807.59;;;0.95;100.00
72689;BME280;61053;52.166;4.506;2023-12-07T05:46:18;101804.13;;;0.91;100.00
72689;BME280;61053;52.166;4.506;2023-12-07T05:48:44;101800.03;;;0.73;100.00
72689;BME280;61053;52.166;4.506;2023-12-07T05:51:16;101800.03;;;0.73;100.00
72689;BME280;61053;52.166;4.506;2023-12-07T05:53:43;101799.47;;;0.48;100.00
72689;BME280;61053;52.166;4.506;2023-12-07T05:56:10;101800.34;;;0.49;100.00
72689;BME280;61053;52.166;4.506;2023-12-07T05:58:36;101806.09;;;0.77;100.00
72689;BME280;61053;52.166;4.506;2023-12-07T06:01:02;101801.78;;;0.73;100.00
72689;BME280;61053;52.166;4.506;2023-12-07T06:03:28;101795.69;;;0.71;100.00
72689;BME280;61053;52.166;4.506;2023-12-07T06:05:54;101804.19;;;0.88;100.00
72689;BME280;61053;52.166;4.506;2023-12-07T06:08:21;101803.50;;;0.74;100.00
72689;BME280;61053;52.166;4.506;2023-12-07T06:10:47;101810.31;;;0.89;100.00
72689;BME280;61053;52.166;4.506;2023-12-07T06:13:13;101812.13;;;0.83;100.00
72689;BME280;61053;52.166;4.506;2023-12-07T06:15:39;101812.38;;;0.67;100.00
72689;BME280;61053;52.166;4.506;2023-12-07T06:18:05;101816.53;;;0.83;100.00
72689;BME280;61053;52.166;4.506;2023-12-07T06:20:31;101803.81;;;0.51;100.00
72689;BME280;61053;52.166;4.506;2023-12-07T06:22:56;101808.72;;;0.77;100.00
72689;BME280;61053;52.166;4.506;2023-12-07T06:25:23;101800.69;;;0.23;100.00
72689;BME280;61053;52.166;4.506;2023-12-07T06:27:49;101808.34;;;0.41;100.00
72689;BME280;61053;52.166;4.506;2023-12-07T06:30:14;101814.34;;;0.52;100.00
72689;BME280;61053;52.166;4.506;2023-12-07T06:32:40;101816.66;;;0.74;100.00
72689;BME280;61053;52.166;4.506;2023-12-07T06:35:05;101808.34;;;0.43;100.00
72689;BME280;61053;52.166;4.506;2023-12-07T06:37:31;101806.78;;;0.25;100.00
72689;BME280;61053;52.166;4.506;2023-12-07T06:39:57;101798.78;;;0.35;100.00
72689;BME280;61053;52.166;4.506;2023-12-07T06:42:24;101804.03;;;0.35;100.00
72689;BME280;61053;52.166;4.506;2023-12-07T06:44:49;101794.28;;;0.45;100.00
72689;BME280;61053;52.166;4.506;2023-12-07T06:47:15;101808.16;;;0.56;100.00
72689;BME280;61053;52.166;4.506;2023-12-07T06:49:41;101813.41;;;0.55;100.00
72689;BME280;61053;52.166;4.506;2023-12-07T06:52:06;101815.88;;;0.67;100.00
72689;BME280;61053;52.166;4.506;2023-12-07T06:54:33;101820.56;;;0.44;100.00
72689;BME280;61053;52.166;4.506;2023-12-07T06:56:59;101802.44;;;0.20;100.00
72689;BME280;61053;52.166;4.506;2023-12-07T06:59:25;101803.09;;;0.39;100.00
72689;BME280;61053;52.166;4.506;2023-12-07T07:01:50;101805.59;;;0.50;100.00
72689;BME280;61053;52.166;4.506;2023-12-07T07:04:16;101804.75;;;0.47;100.00
72689;BME280;61053;52.166;4.506;2023-12-07T07:06:41;101811.53;;;0.63;100.00
72689;BME280;61053;52.166;4.506;2023-12-07T07:09:07;101810.84;;;0.50;100.00
72689;BME280;61053;52.166;4.506;2023-12-07T07:11:33;101808.50;;;0.26;100.00
72689;BME280;61053;52.166;4.506;2023-12-07T07:13:59;101815.31;;;0.42;100.00
72689;BME280;61053;52.166;4.506;2023-12-07T07:16:26;101814.28;;;0.57;100.00
72689;BME280;61053;52.166;4.506;2023-12-07T07:18:52;101814.38;;;0.49;100.00
72689;BME280;61053;52.166;4.506;2023-12-07T07:21:18;101802.44;;;0.22;100.00
72689;BME280;61053;52.166;4.506;2023-12-07T07:23:45;101807.16;;;-0.08;100.00
72689;BME280;61053;52.166;4.506;2023-12-07T07:26:11;101803.31;;;0.23;100.00
72689;BME280;61053;52.166;4.506;2023-12-07T07:28:42;101801.75;;;0.06;100.00
72689;BME280;61053;52.166;4.506;2023-12-07T07:31:07;101806.03;;;0.16;100.00
72689;BME280;61053;52.166;4.506;2023-12-07T07:33:33;101807.91;;;0.02;100.00
72689;BME280;61053;52.166;4.506;2023-12-07T07:35:58;101800.84;;;0.12;100.00
72689;BME280;61053;52.166;4.506;2023-12-07T07:38:24;101811.50;;;-0.05;100.00
72689;BME280;61053;52.166;4.506;2023-12-07T07:40:49;101806.84;;;0.18;100.00
72689;BME280;61053;52.166;4.506;2023-12-07T07:45:44;101819.59;;;0.51;100.00
72689;BME280;61053;52.166;4.506;2023-12-07T07:48:19;101818.63;;;0.59;100.00
72689;BME280;61053;52.166;4.506;2023-12-07T07:50:44;101815.25;;;0.50;100.00
72689;BME280;61053;52.166;4.506;2023-12-07T07:53:10;101819.75;;;0.40;100.00
72689;BME280;61053;52.166;4.506;2023-12-07T07:55:35;101810.13;;;0.37;100.00
72689;BME280;61053;52.166;4.506;2023-12-07T07:58:01;101809.06;;;0.52;100.00
72689;BME280;61053;52.166;4.506;2023-12-07T08:00:29;101809.06;;;0.52;100.00
72689;BME280;61053;52.166;4.506;2023-12-07T08:16:00;101823.06;;;0.53;100.00
72689;BME280;61053;52.166;4.506;2023-12-07T08:18:28;101826.72;;;0.41;100.00
72689;BME280;61053;52.166;4.506;2023-12-07T08:20:54;101823.31;;;0.34;100.00
72689;BME280;61053;52.166;4.506;2023-12-07T08:23:19;101809.88;;;0.57;100.00
72689;BME280;61053;52.166;4.506;2023-12-07T08:25:45;101813.53;;;0.44;100.00
72689;BME280;61053;52.166;4.506;2023-12-07T08:28:11;101822.41;;;0.37;100.00
72689;BME280;61053;52.166;4.506;2023-12-07T08:30:36;101818.91;;;0.36;100.00
72689;BME280;61053;52.166;4.506;2023-12-07T08:33:02;101810.84;;;0.52;100.00
72689;BME280;61053;52.166;4.506;2023-12-07T08:35:27;101813.06;;;0.11;100.00
72689;BME280;61053;52.166;4.506;2023-12-07T08:37:53;101810.25;;;0.28;100.00
72689;BME280;61053;52.166;4.506;2023-12-07T08:40:18;101804.63;;;0.56;100.00
72689;BME280;61053;52.166;4.506;2023-12-07T08:42:45;101803.94;;;0.45;100.00
72689;BME280;61053;52.166;4.506;2023-12-07T08:45:12;101805.47;;;0.59;100.00
72689;BME280;61053;52.166;4.506;2023-12-07T08:47:41;101792.94;;;0.77;100.00
72689;BME280;61053;52.166;4.506;2023-12-07T08:50:07;101794.72;;;0.75;100.00
72689;BME280;61053;52.166;4.506;2023-12-07T08:52:33;101794.16;;;0.53;100.00
72689;BME280;61053;52.166;4.506;2023-12-07T08:57:26;101793.25;;;0.57;100.00
72689;BME280;61053;52.166;4.506;2023-12-07T08:59:51;101786.41;;;0.44;100.00
72689;BME280;61053;52.166;4.506;2023-12-07T09:02:17;101791.59;;;0.48;100.00
72689;BME280;61053;52.166;4.506;2023-12-07T09:04:42;101785.19;;;0.68;100.00
72689;BME280;61053;52.166;4.506;2023-12-07T09:07:08;101789.88;;;0.46;100.00
72689;BME280;61053;52.166;4.506;2023-12-07T09:09:34;101787.00;;;0.64;100.00
72689;BME280;61053;52.166;4.506;2023-12-07T09:12:00;101788.28;;;0.35;100.00
72689;BME280;61053;52.166;4.506;2023-12-07T09:14:26;101793.97;;;0.67;100.00
72689;BME280;61053;52.166;4.506;2023-12-07T09:16:52;101802.00;;;0.56;100.00
72689;BME280;61053;52.166;4.506;2023-12-07T09:19:17;101792.94;;;0.77;100.00
72689;BME280;61053;52.166;4.506;2023-12-07T09:21:43;101795.63;;;0.72;100.00
72689;BME280;61053;52.166;4.506;2023-12-07T09:24:09;101793.25;;;0.55;100.00
72689;BME280;61053;52.166;4.506;2023-12-07T09:26:34;101789.44;;;0.76;100.00
72689;BME280;61053;52.166;4.506;2023-12-07T09:29:01;101797.34;;;0.75;100.00
72689;BME280;61053;52.166;4.506;2023-12-07T09:31:26;101783.59;;;0.59;100.00
72689;BME280;61053;52.166;4.506;2023-12-07T09:33:52;101783.16;;;0.88;100.00
72689;BME280;61053;52.166;4.506;2023-12-07T09:36:19;101779.38;;;1.06;100.00
72689;BME280;61053;52.166;4.506;2023-12-07T09:38:46;101775.94;;;1.01;100.00
72689;BME280;61053;52.166;4.506;2023-12-07T09:41:12;101778.31;;;1.16;100.00
72689;BME280;61053;52.166;4.506;2023-12-07T09:43:38;101767.53;;;0.77;100.00
72689;BME280;61053;52.166;4.506;2023-12-07T09:46:04;101764.28;;;1.17;100.00
72689;BME280;61053;52.166;4.506;2023-12-07T09:48:31;101759.91;;;1.16;100.00
72689;BME280;61053;52.166;4.506;2023-12-07T09:50:59;101756.72;;;0.96;100.00
72689;BME280;61053;52.166;4.506;2023-12-07T09:53:27;101753.84;;;1.13;100.00
72689;BME280;61053;52.166;4.506;2023-12-07T09:55:54;101752.00;;;1.18;100.00
72689;BME280;61053;52.166;4.506;2023-12-07T09:58:20;101747.59;;;1.17;100.00
72689;BME280;61053;52.166;4.506;2023-12-07T10:00:47;101737.06;;;1.20;100.00
72689;BME280;61053;52.166;4.506;2023-12-07T10:18:23;101745.88;;;1.16;100.00
72689;BME280;61053;52.166;4.506;2023-12-07T10:20:48;101746.72;;;1.18;100.00
72689;BME280;61053;52.166;4.506;2023-12-07T10:23:14;101746.50;;;1.32;100.00
72689;BME280;61053;52.166;4.506;2023-12-07T10:25:42;101742.94;;;1.34;100.00
72689;BME280;61053;52.166;4.506;2023-12-07T10:28:09;101735.28;;;1.19;100.00
72689;BME280;61053;52.166;4.506;2023-12-07T10:30:40;101726.44;;;1.24;100.00
72689;BME280;61053;52.166;4.506;2023-12-07T10:33:07;101730.72;;;1.30;100.00
72689;BME280;61053;52.166;4.506;2023-12-07T10:35:37;101717.41;;;1.38;100.00
72689;BME280;61053;52.166;4.506;2023-12-07T10:38:07;101709.50;;;1.39;100.00
72689;BME280;61053;52.166;4.506;2023-12-07T10:40:42;101710.94;;;1.56;100.00
72689;BME280;61053;52.166;4.506;2023-12-07T10:43:08;101698.13;;;1.39;100.00
72689;BME280;61053;52.166;4.506;2023-12-07T10:45:34;101695.09;;;1.59;100.00
72689;BME280;61053;52.166;4.506;2023-12-07T10:48:04;101694.78;;;1.74;100.00
72689;BME280;61053;52.166;4.506;2023-12-07T10:50:32;101688.03;;;1.61;100.00
72689;BME280;61053;52.166;4.506;2023-12-07T10:53:09;101681.13;;;1.55;100.00
72689;BME280;61053;52.166;4.506;2023-12-07T10:55:52;101673.72;;;1.74;100.00
72689;BME280;61053;52.166;4.506;2023-12-07T10:58:24;101681.16;;;1.52;100.00
72689;BME280;61053;52.166;4.506;2023-12-07T11:06:00;101670.28;;;1.71;100.00
72689;BME280;61053;52.166;4.506;2023-12-07T11:08:38;101662.25;;;1.77;100.00
72689;BME280;61053;52.166;4.506;2023-12-07T11:11:39;101654.25;;;1.83;100.00
72689;BME280;61053;52.166;4.506;2023-12-07T11:14:10;101655.78;;;1.50;100.00
72689;BME280;61053;52.166;4.506;2023-12-07T11:16:40;101647.78;;;1.56;100.00
72689;BME280;61053;52.166;4.506;2023-12-07T11:22:10;101654.75;;;1.57;100.00
72689;BME280;61053;52.166;4.506;2023-12-07T11:24:37;101649.78;;;1.85;100.00
72689;BME280;61053;52.166;4.506;2023-12-07T11:27:03;101632.53;;;1.72;100.00
72689;BME280;61053;52.166;4.506;2023-12-07T11:29:30;101636.84;;;1.76;100.00
72689;BME280;61053;52.166;4.506;2023-12-07T11:32:03;101633.13;;;1.84;100.00
72689;BME280;61053;52.166;4.506;2023-12-07T11:34:39;101645.03;;;1.62;100.00
72689;BME280;61053;52.166;4.506;2023-12-07T11:37:08;101639.03;;;1.54;100.00
72689;BME280;61053;52.166;4.506;2023-12-07T11:39:40;101631.50;;;1.79;100.00
72689;BME280;61053;52.166;4.506;2023-12-07T11:42:15;101624.16;;;1.93;100.00
72689;BME280;61053;52.166;4.506;2023-12-07T11:44:43;101608.06;;;1.66;100.00
72689;BME280;61053;52.166;4.506;2023-12-07T11:47:18;101603.84;;;1.98;100.00
72689;BME280;61053;52.166;4.506;2023-12-07T11:49:46;101603.63;;;2.09;100.00
72689;BME280;61053;52.166;4.506;2023-12-07T11:52:16;101597.69;;;1.99;100.00
72689;BME280;61053;52.166;4.506;2023-12-07T11:54:48;101590.19;;;1.81;100.00
72689;BME280;61053;52.166;4.506;2023-12-07T11:57:14;101585.31;;;2.01;100.00
72689;BME280;61053;52.166;4.506;2023-12-07T11:59:42;101582.81;;;1.97;100.00
72689;BME280;61053;52.166;4.506;2023-12-07T12:02:12;101579.69;;;1.79;100.00
72689;BME280;61053;52.166;4.506;2023-12-07T12:04:39;101571.28;;;2.02;100.00
72689;BME280;61053;52.166;4.506;2023-12-07T12:07:05;101564.00;;;2.14;100.00
72689;BME280;61053;52.166;4.506;2023-12-07T12:09:31;101556.28;;;2.04;100.00
72689;BME280;61053;52.166;4.506;2023-12-07T12:11:59;101547.84;;;1.90;100.00
72689;BME280;61053;52.166;4.506;2023-12-07T12:14:26;101546.50;;;2.09;100.00
72689;BME280;61053;52.166;4.506;2023-12-07T12:16:52;101536.34;;;2.30;100.00
72689;BME280;61053;52.166;4.506;2023-12-07T12:19:18;101525.94;;;1.88;100.00
72689;BME280;61053;52.166;4.506;2023-12-07T12:21:43;101522.28;;;1.94;100.00
72689;BME280;61053;52.166;4.506;2023-12-07T12:24:10;101508.44;;;2.21;100.00
72689;BME280;61053;52.166;4.506;2023-12-07T12:26:40;101500.97;;;2.04;100.00
72689;BME280;61053;52.166;4.506;2023-12-07T12:29:07;101496.22;;;1.83;100.00
72689;BME280;61053;52.166;4.506;2023-12-07T12:31:34;101499.22;;;1.67;100.00
72689;BME280;61053;52.166;4.506;2023-12-07T12:34:06;101501.09;;;1.98;100.00
72689;BME280;61053;52.166;4.506;2023-12-07T12:36:34;101501.72;;;1.74;100.00
72689;BME280;61053;52.166;4.506;2023-12-07T12:39:00;101491.50;;;1.97;100.00
72689;BME280;61053;52.166;4.506;2023-12-07T12:41:27;101488.25;;;1.47;100.00
72689;BME280;61053;52.166;4.506;2023-12-07T12:43:56;101479.38;;;1.90;100.00
72689;BME280;61053;52.166;4.506;2023-12-07T12:46:22;101491.63;;;1.54;100.00
72689;BME280;61053;52.166;4.506;2023-12-07T12:48:58;101483.28;;;1.74;100.00
72689;BME280;61053;52.166;4.506;2023-12-07T12:51:25;101480.25;;;1.89;100.00
72689;BME280;61053;52.166;4.506;2023-12-07T12:53:53;101480.56;;;1.77;100.00
72689;BME280;61053;52.166;4.506;2023-12-07T12:56:21;101471.91;;;1.72;100.00
72689;BME280;61053;52.166;4.506;2023-12-07T12:58:49;101461.09;;;1.82;100.00
72689;BME280;61053;52.166;4.506;2023-12-07T13:01:16;101459.41;;;1.80;100.00
72689;BME280;61053;52.166;4.506;2023-12-07T13:03:46;101470.97;;;2.10;100.00
72689;BME280;61053;52.166;4.506;2023-12-07T13:06:15;101472.06;;;2.01;100.00
72689;BME280;61053;52.166;4.506;2023-12-07T13:08:42;101463.19;;;2.05;100.00
72689;BME280;61053;52.166;4.506;2023-12-07T13:11:09;101450.06;;;2.04;100.00
72689;BME280;61053;52.166;4.506;2023-12-07T13:13:40;101457.03;;;2.06;100.00
72689;BME280;61053;52.166;4.506;2023-12-07T13:16:06;101449.16;;;2.05;100.00
72689;BME280;61053;52.166;4.506;2023-12-07T13:18:31;101449.03;;;2.09;100.00
72689;BME280;61053;52.166;4.506;2023-12-07T13:20:57;101445.06;;;1.92;100.00
72689;BME280;61053;52.166;4.506;2023-12-07T13:23:25;101440.63;;;1.94;100.00
72689;BME280;61053;52.166;4.506;2023-12-07T13:25:51;101422.59;;;2.13;100.00
72689;BME280;61053;52.166;4.506;2023-12-07T13:28:17;101427.22;;;2.04;100.00
72689;BME280;61053;52.166;4.506;2023-12-07T13:30:42;101425.34;;;1.74;100.00
72689;BME280;61053;52.166;4.506;2023-12-07T13:33:09;101422.16;;;1.97;100.00